Terminal Aerodrome Forecast
Issued by NWS Shreveport, LA

Home | Current Version | Previous Version | Text Only | Print | Product List | Glossary On
Versions: 1 2 3 4 5 6 7 8 9 10 11 12 13 14 15 16 17 18
000
FTUS44 KSHV 092300
TAFLFK
TAF
KLFK 092323Z 1000/1024 19003KT P6SM SKC
      TEMPO 1010/1013 4SM BR
     FM101400 23004KT P6SM SKC
     FM101600 20005KT P6SM SCT030
     FM102000 18006KT P6SM SCT040=

USA.gov is the U.S. government's official web portal to all federal, state and local government web resources and services.